createdAt,value
2022-12-04T00:01:29.215Z,69.27
2022-12-04T00:03:59.564Z,69.24
2022-12-04T00:06:28.110Z,69.03
2022-12-04T00:08:56.467Z,69.49
2022-12-04T00:11:27.029Z,68.72
2022-12-04T00:13:55.265Z,68.13
2022-12-04T00:16:27.344Z,69.79
2022-12-04T00:18:55.697Z,68.48
2022-12-04T00:21:25.492Z,68.94
2022-12-04T00:23:54.836Z,69.49
2022-12-04T00:26:24.507Z,68.99
2022-12-04T00:28:52.869Z,69.85
2022-12-04T00:31:22.855Z,69.62
2022-12-04T00:33:52.287Z,69.56
2022-12-04T00:36:22.051Z,69.81
2022-12-04T00:38:50.396Z,69.18
2022-12-04T00:41:20.867Z,70.61
2022-12-04T00:43:48.924Z,69.60
2022-12-04T00:46:17.815Z,69.83
2022-12-04T00:48:46.006Z,69.74
2022-12-04T00:51:16.931Z,69.55
2022-12-04T00:53:45.306Z,68.97
2022-12-04T00:56:15.698Z,69.48
2022-12-04T00:58:45.401Z,69.94
2022-12-04T01:01:15.794Z,69.58
2022-12-04T01:03:44.009Z,69.42
2022-12-04T01:06:22.308Z,69.16
2022-12-04T01:08:50.591Z,69.52
2022-12-04T01:11:19.453Z,68.54
2022-12-04T01:13:47.754Z,68.36
2022-12-04T01:16:20.143Z,68.21
2022-12-04T01:18:48.601Z,68.49
2022-12-04T01:21:16.801Z,68.88
2022-12-04T01:23:46.565Z,69.13
2022-12-04T01:26:14.873Z,69.99
2022-12-04T01:28:42.747Z,70.13
2022-12-04T01:31:13.310Z,69.64
2022-12-04T01:33:42.102Z,69.22
2022-12-04T01:36:13.478Z,69.64
2022-12-04T01:38:42.489Z,69.80
2022-12-04T01:41:13.635Z,69.86
2022-12-04T01:43:41.567Z,70.45
2022-12-04T01:46:10.039Z,71.25
2022-12-04T01:48:43.118Z,70.71
2022-12-04T01:51:17.893Z,70.48
2022-12-04T01:53:50.794Z,71.35
2022-12-04T01:56:22.747Z,71.52
2022-12-04T01:58:55.944Z,71.42
2022-12-04T02:01:24.413Z,71.05
2022-12-04T02:03:52.524Z,71.71
2022-12-04T02:06:20.581Z,72.13
2022-12-04T02:08:48.526Z,71.20
2022-12-04T02:11:28.226Z,71.61
2022-12-04T02:14:09.050Z,71.36
2022-12-04T02:16:46.304Z,72.01
2022-12-04T02:19:32.941Z,71.81
2022-12-04T02:22:04.609Z,71.20
2022-12-04T02:24:50.154Z,71.65
2022-12-04T02:27:49.887Z,71.83
2022-12-04T02:30:17.874Z,71.06
2022-12-04T02:32:51.702Z,71.51
2022-12-04T02:35:28.138Z,71.29
2022-12-04T02:38:01.131Z,71.22
2022-12-04T02:40:33.081Z,71.05
2022-12-04T02:43:09.780Z,71.13
2022-12-04T02:45:42.201Z,71.58
2022-12-04T02:48:10.245Z,71.13
2022-12-04T02:50:41.855Z,72.52
2022-12-04T02:53:13.873Z,72.31
2022-12-04T02:55:47.009Z,72.22
2022-12-04T02:58:21.413Z,71.74
2022-12-04T03:00:51.762Z,73.01
2022-12-04T03:03:23.013Z,72.84
2022-12-04T03:05:58.107Z,73.09
2022-12-04T03:08:34.164Z,72.92
2022-12-04T03:11:02.963Z,72.28
2022-12-04T03:13:37.288Z,72.78
2022-12-04T03:16:11.567Z,73.17
2022-12-04T03:18:43.441Z,72.96
2022-12-04T03:21:15.634Z,72.68
2022-12-04T03:23:49.987Z,72.70
2022-12-04T03:26:27.410Z,73.00
2022-12-04T03:29:00.891Z,73.02
2022-12-04T03:31:36.410Z,73.15
2022-12-04T03:34:07.112Z,72.50
2022-12-04T03:36:38.869Z,73.56
2022-12-04T03:39:12.897Z,72.97
2022-12-04T03:41:56.632Z,72.33
2022-12-04T03:44:30.956Z,72.47
2022-12-04T03:47:02.867Z,73.63
2022-12-04T03:49:39.619Z,72.91
2022-12-04T03:52:14.555Z,73.15
2022-12-04T03:54:47.341Z,73.29
2022-12-04T03:57:19.244Z,72.29
2022-12-04T03:59:55.936Z,72.77
2022-12-04T04:02:29.033Z,72.51
2022-12-04T04:04:59.988Z,72.08
2022-12-04T04:07:35.867Z,72.04
2022-12-04T04:10:08.760Z,72.85
2022-12-04T04:12:42.434Z,73.01
2022-12-04T04:15:32.755Z,72.79
2022-12-04T04:18:20.240Z,73.61
2022-12-04T04:21:11.295Z,73.18
2022-12-04T04:24:01.748Z,73.08
2022-12-04T04:26:35.347Z,72.92
2022-12-04T04:29:03.622Z,73.09
2022-12-04T04:31:39.241Z,72.24
2022-12-04T04:34:17.520Z,72.43
2022-12-04T04:36:54.826Z,73.20
2022-12-04T04:39:32.119Z,73.02
2022-12-04T04:42:07.643Z,73.44
2022-12-04T04:44:45.173Z,73.54
2022-12-04T04:47:22.178Z,72.33
2022-12-04T04:49:53.688Z,73.41
2022-12-04T04:52:23.687Z,73.42
2022-12-04T04:54:51.511Z,72.24
2022-12-04T04:57:28.368Z,72.10
2022-12-04T04:59:56.853Z,72.93
2022-12-04T05:02:27.983Z,73.53
2022-12-04T05:04:56.550Z,72.76
2022-12-04T05:07:27.646Z,72.74
2022-12-04T05:09:55.807Z,72.02
2022-12-04T05:12:24.149Z,72.77
2022-12-04T05:14:52.007Z,72.98
2022-12-04T05:17:19.968Z,72.67
2022-12-04T05:19:54.160Z,73.12
2022-12-04T05:22:24.355Z,72.76
2022-12-04T05:24:52.378Z,73.20
2022-12-04T05:27:20.629Z,73.89
2022-12-04T05:29:48.735Z,73.08
2022-12-04T05:32:16.914Z,73.01
2022-12-04T05:34:45.287Z,74.26
2022-12-04T05:37:14.551Z,73.53
2022-12-04T05:39:42.522Z,73.57
2022-12-04T05:42:10.537Z,73.79
2022-12-04T05:44:38.562Z,73.20
2022-12-04T05:47:06.987Z,73.38
2022-12-04T05:49:35.889Z,73.76
2022-12-04T05:52:05.281Z,74.03
2022-12-04T05:54:34.686Z,73.97
2022-12-04T05:57:02.763Z,72.33
2022-12-04T05:59:30.621Z,73.08
2022-12-04T06:01:58.521Z,73.36
2022-12-04T06:04:26.529Z,73.24
2022-12-04T06:06:55.676Z,73.77
2022-12-04T06:09:23.720Z,73.55
2022-12-04T06:11:53.143Z,74.53
2022-12-04T06:14:21.090Z,74.12
2022-12-04T06:16:49.033Z,73.90
2022-12-04T06:19:20.142Z,73.19
2022-12-04T06:21:49.792Z,73.56
2022-12-04T06:24:20.368Z,73.67
2022-12-04T06:27:18.691Z,73.62
2022-12-04T06:29:38.329Z,73.11
2022-12-04T06:32:06.509Z,72.85
2022-12-04T06:34:35.624Z,72.95
2022-12-04T06:37:03.868Z,73.07
2022-12-04T06:39:32.964Z,74.12
2022-12-04T06:42:01.062Z,73.99
2022-12-04T06:44:29.096Z,73.56
2022-12-04T06:47:00.954Z,73.37
2022-12-04T06:49:29.568Z,74.77
2022-12-04T06:51:57.478Z,74.87
2022-12-04T06:54:26.152Z,74.87
2022-12-04T06:56:54.101Z,73.43
2022-12-04T06:59:22.273Z,74.54
2022-12-04T07:01:50.210Z,74.41
2022-12-04T07:04:19.505Z,74.07
2022-12-04T07:06:47.430Z,74.19
2022-12-04T07:09:17.141Z,73.31
2022-12-04T07:11:46.150Z,73.93
2022-12-04T07:14:15.025Z,73.88
2022-12-04T07:16:43.685Z,73.79
2022-12-04T07:19:13.748Z,73.36
2022-12-04T07:21:43.367Z,75.11
2022-12-04T07:24:16.143Z,73.62
2022-12-04T07:26:44.610Z,74.52
2022-12-04T07:29:12.480Z,74.35
2022-12-04T07:31:40.626Z,73.67
2022-12-04T07:34:08.631Z,74.40
2022-12-04T07:36:36.631Z,74.46
2022-12-04T07:39:05.852Z,74.98
2022-12-04T07:41:33.670Z,74.40
2022-12-04T07:44:01.468Z,75.70
2022-12-04T07:46:30.397Z,74.36
2022-12-04T07:49:00.047Z,74.42
2022-12-04T07:51:29.721Z,75.43
2022-12-04T07:54:03.237Z,75.27
2022-12-04T07:56:33.700Z,74.46
2022-12-04T07:59:01.720Z,73.96
2022-12-04T08:01:29.890Z,73.89
2022-12-04T08:03:59.644Z,73.73
2022-12-04T08:06:29.822Z,74.60
2022-12-04T08:08:58.441Z,74.63
2022-12-04T08:11:28.762Z,73.93
2022-12-04T08:13:59.092Z,74.33
2022-12-04T08:16:28.126Z,74.69
2022-12-04T08:18:56.806Z,74.32
2022-12-04T08:21:26.296Z,74.65
2022-12-04T08:23:56.258Z,74.02
2022-12-04T08:26:26.461Z,73.99
2022-12-04T08:28:55.108Z,74.47
2022-12-04T08:31:26.581Z,74.95
2022-12-04T08:33:57.305Z,74.57
2022-12-04T08:36:25.837Z,74.44
2022-12-04T08:38:53.970Z,74.05
2022-12-04T08:41:24.084Z,73.61
2022-12-04T08:43:54.566Z,73.28
2022-12-04T08:46:25.296Z,71.96
2022-12-04T08:48:53.386Z,72.29
2022-12-04T08:51:24.222Z,72.25
2022-12-04T08:53:54.775Z,73.92
2022-12-04T08:56:23.594Z,73.23
2022-12-04T08:58:51.514Z,72.88
2022-12-04T09:01:19.745Z,73.58
2022-12-04T09:03:49.083Z,73.30
2022-12-04T09:06:17.300Z,73.14
2022-12-04T09:08:45.184Z,72.83
2022-12-04T09:11:15.512Z,72.06
2022-12-04T09:13:44.888Z,72.79
2022-12-04T09:16:15.835Z,72.90
2022-12-04T09:18:44.280Z,73.01
2022-12-04T09:21:16.866Z,71.82
2022-12-04T09:23:45.112Z,72.07
2022-12-04T09:26:22.852Z,71.46
2022-12-04T09:28:51.267Z,71.74
2022-12-04T09:31:20.112Z,72.37
2022-12-04T09:33:48.761Z,71.84
2022-12-04T09:36:18.499Z,71.33
2022-12-04T09:38:48.208Z,71.90
2022-12-04T09:41:26.522Z,71.64
2022-12-04T09:43:59.235Z,71.01
2022-12-04T09:46:33.729Z,70.88
2022-12-04T09:49:09.411Z,70.92
2022-12-04T09:51:41.695Z,71.40
2022-12-04T09:54:15.700Z,71.01
2022-12-04T09:56:47.058Z,71.52
2022-12-04T09:59:22.251Z,71.10
2022-12-04T10:01:57.810Z,70.78
2022-12-04T10:04:26.195Z,70.44
2022-12-04T10:07:03.075Z,70.27
2022-12-04T10:09:40.438Z,70.51
2022-12-04T10:12:20.880Z,69.87
2022-12-04T10:15:18.054Z,69.37
2022-12-04T10:18:07.218Z,70.71
2022-12-04T10:20:49.888Z,70.44
2022-12-04T10:23:28.891Z,70.68
2022-12-04T10:25:57.018Z,71.93
2022-12-04T10:28:32.594Z,70.76
2022-12-04T10:31:05.249Z,70.47
2022-12-04T10:33:39.091Z,70.42
2022-12-04T10:36:08.246Z,70.13
2022-12-04T10:38:43.613Z,70.45
2022-12-04T10:41:18.982Z,71.15
2022-12-04T10:43:49.104Z,70.70
2022-12-04T10:46:21.532Z,71.12
2022-12-04T10:48:52.000Z,71.40
2022-12-04T10:51:22.956Z,71.17
2022-12-04T10:53:53.058Z,71.02
2022-12-04T10:56:22.763Z,70.98
2022-12-04T10:58:59.566Z,71.53
2022-12-04T11:01:29.129Z,70.86
2022-12-04T11:04:01.548Z,70.42
2022-12-04T11:06:30.093Z,71.00
2022-12-04T11:09:00.858Z,70.98
2022-12-04T11:11:32.053Z,70.69
2022-12-04T11:14:05.091Z,71.51
2022-12-04T11:16:40.053Z,71.59
2022-12-04T11:19:25.459Z,71.34
2022-12-04T11:21:55.473Z,71.37
2022-12-04T11:24:30.753Z,71.53
2022-12-04T11:26:59.515Z,72.21
2022-12-04T11:29:33.054Z,71.53
2022-12-04T11:32:07.217Z,71.68
2022-12-04T11:34:39.036Z,72.50
2022-12-04T11:37:16.708Z,71.45
2022-12-04T11:39:47.160Z,72.18
2022-12-04T11:42:19.591Z,71.26
2022-12-04T11:44:56.503Z,72.41
2022-12-04T11:47:26.708Z,71.58
2022-12-04T11:50:06.051Z,71.74
2022-12-04T11:52:46.482Z,72.03
2022-12-04T11:55:28.505Z,71.93
2022-12-04T11:58:15.032Z,71.40
2022-12-04T12:00:51.992Z,71.31
2022-12-04T12:03:28.505Z,71.71
2022-12-04T12:06:13.691Z,72.25
2022-12-04T12:08:55.895Z,72.42
2022-12-04T12:11:31.301Z,71.35
2022-12-04T12:14:08.547Z,71.48
2022-12-04T12:16:48.489Z,70.91
2022-12-04T12:19:36.594Z,71.70
2022-12-04T12:22:13.127Z,71.42
2022-12-04T12:24:53.968Z,71.14
2022-12-04T12:27:40.444Z,72.54
2022-12-04T12:30:15.109Z,72.00
2022-12-04T12:33:09.397Z,72.07
2022-12-04T12:35:41.543Z,72.50
2022-12-04T12:38:14.763Z,72.75
2022-12-04T12:40:45.913Z,73.13
2022-12-04T12:43:21.105Z,71.89
2022-12-04T12:45:55.039Z,72.33
2022-12-04T12:48:29.708Z,73.29
2022-12-04T12:51:28.696Z,72.64
2022-12-04T12:53:55.017Z,72.82
2022-12-04T12:56:32.420Z,73.08
2022-12-04T12:59:06.308Z,73.07
2022-12-04T13:01:43.477Z,72.57
2022-12-04T13:04:20.784Z,72.83
2022-12-04T13:06:54.139Z,72.65
2022-12-04T13:09:26.237Z,72.74
2022-12-04T13:11:59.361Z,73.18
2022-12-04T13:14:28.823Z,73.03
2022-12-04T13:17:02.261Z,72.93
2022-12-04T13:19:35.666Z,72.98
2022-12-04T13:22:17.594Z,73.08
2022-12-04T13:25:14.185Z,74.06
2022-12-04T13:27:57.394Z,74.01
2022-12-04T13:30:32.838Z,73.94
2022-12-04T13:33:37.167Z,74.30
2022-12-04T13:36:27.091Z,73.63
2022-12-04T13:39:22.966Z,73.89
2022-12-04T13:41:59.998Z,73.81
2022-12-04T13:44:29.720Z,75.18
2022-12-04T13:47:01.663Z,74.91
2022-12-04T13:49:31.801Z,75.41
2022-12-04T13:52:03.656Z,75.89
2022-12-04T13:54:33.982Z,75.02
2022-12-04T13:57:21.110Z,74.93
2022-12-04T13:59:50.443Z,74.83
2022-12-04T14:02:32.348Z,75.78
2022-12-04T14:05:02.798Z,76.05
2022-12-04T14:07:33.577Z,75.89
2022-12-04T14:10:04.771Z,75.87
2022-12-04T14:12:37.416Z,75.90
2022-12-04T14:15:07.881Z,76.37
2022-12-04T14:17:39.646Z,76.90
2022-12-04T14:20:11.074Z,77.00
2022-12-04T14:22:44.174Z,76.20
2022-12-04T14:25:35.555Z,76.94
2022-12-04T14:28:25.145Z,76.67
2022-12-04T14:31:14.385Z,77.89
2022-12-04T14:33:48.599Z,77.05
2022-12-04T14:36:24.491Z,77.99
2022-12-04T14:39:01.435Z,77.87
2022-12-04T14:41:29.727Z,79.14
2022-12-04T14:43:58.454Z,78.71
2022-12-04T14:46:33.709Z,77.64
2022-12-04T14:49:14.339Z,78.29
2022-12-04T14:51:51.176Z,78.33
2022-12-04T14:54:26.748Z,78.91
2022-12-04T14:57:12.183Z,79.70
2022-12-04T14:59:45.311Z,80.08
2022-12-04T15:02:17.977Z,79.87
2022-12-04T15:04:48.443Z,79.53
2022-12-04T15:07:21.368Z,79.23
2022-12-04T15:10:11.502Z,79.53
2022-12-04T15:12:46.773Z,80.11
2022-12-04T15:15:22.006Z,80.48
2022-12-04T15:17:58.806Z,80.00
2022-12-04T15:20:31.298Z,80.13
2022-12-04T15:23:04.092Z,81.53
2022-12-04T15:25:36.448Z,81.58
2022-12-04T15:28:09.878Z,82.19
2022-12-04T15:30:42.051Z,83.17
2022-12-04T15:33:20.982Z,82.92
2022-12-04T15:35:53.836Z,82.55
2022-12-04T15:38:22.156Z,82.69
2022-12-04T15:40:55.881Z,82.62
2022-12-04T15:43:30.939Z,83.26
2022-12-04T15:45:59.592Z,83.76
2022-12-04T15:48:29.057Z,82.67
2022-12-04T15:51:01.559Z,83.09
2022-12-04T15:53:32.494Z,83.43
2022-12-04T15:56:04.934Z,83.23
2022-12-04T15:58:35.157Z,83.62
2022-12-04T16:01:06.260Z,83.77
2022-12-04T16:03:39.988Z,83.72
2022-12-04T16:06:19.585Z,83.33
2022-12-04T16:08:49.289Z,83.25
2022-12-04T16:11:32.304Z,82.62
2022-12-04T16:14:19.884Z,83.74
2022-12-04T16:16:49.709Z,83.56
2022-12-04T16:19:25.702Z,83.33
2022-12-04T16:21:55.262Z,81.92
2022-12-04T16:24:23.515Z,82.03
2022-12-04T16:26:52.897Z,82.80
2022-12-04T16:29:21.405Z,82.68
2022-12-04T16:31:49.880Z,83.16
2022-12-04T16:34:18.243Z,83.29
2022-12-04T16:36:46.188Z,84.22
2022-12-04T16:39:15.486Z,84.96
2022-12-04T16:41:43.435Z,84.27
2022-12-04T16:44:15.970Z,84.45
2022-12-04T16:46:44.571Z,84.86
2022-12-04T16:49:13.777Z,84.32
2022-12-04T16:51:49.591Z,84.53
2022-12-04T16:54:18.919Z,84.34
2022-12-04T16:56:46.867Z,83.51
2022-12-04T16:59:15.608Z,84.44
2022-12-04T17:01:46.324Z,83.79
2022-12-04T17:04:14.550Z,83.88
2022-12-04T17:06:43.118Z,83.20
2022-12-04T17:09:11.714Z,83.56
2022-12-04T17:11:41.932Z,83.35
2022-12-04T17:14:10.714Z,83.19
2022-12-04T17:16:42.704Z,84.02
2022-12-04T17:19:11.606Z,84.02
2022-12-04T17:21:40.322Z,83.35
2022-12-04T17:24:09.309Z,83.28
2022-12-04T17:26:37.774Z,83.17
2022-12-04T17:29:07.409Z,82.97
2022-12-04T17:31:35.336Z,82.76
2022-12-04T17:34:03.454Z,83.78
2022-12-04T17:36:31.306Z,82.29
2022-12-04T17:39:02.054Z,82.22
2022-12-04T17:41:30.295Z,82.58
2022-12-04T17:44:00.909Z,83.24
2022-12-04T17:46:30.236Z,82.84
2022-12-04T17:49:02.641Z,84.00
2022-12-04T17:51:35.002Z,84.65
2022-12-04T17:54:03.228Z,83.96
2022-12-04T17:56:31.232Z,83.05
2022-12-04T17:58:59.777Z,83.39
2022-12-04T18:01:30.389Z,83.54
2022-12-04T18:04:00.708Z,83.49
2022-12-04T18:06:31.506Z,84.17
2022-12-04T18:08:59.905Z,83.63
2022-12-04T18:11:33.049Z,83.57
2022-12-04T18:14:06.007Z,84.11
2022-12-04T18:16:42.094Z,83.75
2022-12-04T18:19:09.987Z,83.55
2022-12-04T18:21:38.414Z,83.12
2022-12-04T18:24:07.984Z,82.59
2022-12-04T18:26:38.310Z,83.27
2022-12-04T18:29:07.075Z,83.50
2022-12-04T18:31:35.848Z,83.25
2022-12-04T18:34:06.418Z,82.60
2022-12-04T18:36:36.080Z,82.57
2022-12-04T18:39:06.453Z,82.59
2022-12-04T18:41:34.338Z,82.59
2022-12-04T18:44:03.079Z,81.90
2022-12-04T18:46:31.542Z,82.53
2022-12-04T18:49:00.248Z,82.13
2022-12-04T18:51:31.764Z,82.42
2022-12-04T18:54:02.489Z,81.51
2022-12-04T18:56:31.573Z,81.20
2022-12-04T18:59:00.240Z,82.68
2022-12-04T19:01:29.194Z,82.51
2022-12-04T19:03:58.376Z,82.54
2022-12-04T19:06:32.093Z,82.33
2022-12-04T19:09:02.120Z,82.89
2022-12-04T19:11:30.050Z,82.93
2022-12-04T19:13:59.335Z,83.25
2022-12-04T19:16:27.666Z,82.94
2022-12-04T19:18:56.308Z,82.49
2022-12-04T19:21:24.992Z,82.65
2022-12-04T19:23:58.117Z,82.21
2022-12-04T19:26:26.527Z,82.53
2022-12-04T19:28:55.180Z,81.10
2022-12-04T19:31:25.414Z,81.09
2022-12-04T19:33:56.778Z,81.89
2022-12-04T19:36:25.135Z,81.17
2022-12-04T19:38:54.605Z,80.78
2022-12-04T19:41:24.392Z,80.97
2022-12-04T19:43:56.078Z,80.55
2022-12-04T19:46:26.404Z,80.26
2022-12-04T19:48:56.901Z,80.03
2022-12-04T19:51:25.287Z,80.42
2022-12-04T19:53:55.647Z,80.07
2022-12-04T19:56:25.250Z,79.55
2022-12-04T19:58:54.362Z,80.88
2022-12-04T20:01:27.009Z,80.29
2022-12-04T20:03:55.593Z,80.65
2022-12-04T20:06:27.140Z,79.81
2022-12-04T20:08:58.572Z,80.10
2022-12-04T20:11:28.294Z,79.14
2022-12-04T20:13:56.922Z,80.23
2022-12-04T20:16:26.645Z,79.41
2022-12-04T20:18:55.241Z,79.16
2022-12-04T20:21:27.117Z,79.18
2022-12-04T20:23:56.432Z,79.54
2022-12-04T20:26:26.339Z,79.39
2022-12-04T20:28:56.476Z,79.43
2022-12-04T20:31:27.125Z,78.27
2022-12-04T20:33:56.539Z,79.60
2022-12-04T20:36:26.901Z,79.48
2022-12-04T20:38:59.291Z,78.75
2022-12-04T20:41:28.499Z,79.66
2022-12-04T20:43:57.349Z,78.92
2022-12-04T20:46:27.959Z,79.26
2022-12-04T20:48:55.932Z,78.97
2022-12-04T20:51:26.163Z,79.13
2022-12-04T20:53:59.308Z,79.14
2022-12-04T20:56:30.900Z,79.21
2022-12-04T20:59:00.109Z,80.05
2022-12-04T21:01:29.481Z,79.66
2022-12-04T21:04:00.233Z,79.67
2022-12-04T21:06:34.504Z,79.51
2022-12-04T21:09:06.119Z,79.89
2022-12-04T21:11:36.052Z,80.30
2022-12-04T21:14:24.584Z,80.05
2022-12-04T21:16:52.835Z,78.90
2022-12-04T21:19:22.233Z,78.65
2022-12-04T21:21:50.388Z,79.75
2022-12-04T21:24:21.856Z,80.21
2022-12-04T21:26:49.693Z,80.82
2022-12-04T21:29:17.661Z,81.18
2022-12-04T21:31:46.109Z,79.88
2022-12-04T21:34:16.912Z,80.44
2022-12-04T21:36:46.235Z,79.96
2022-12-04T21:39:14.816Z,80.88
2022-12-04T21:42:01.515Z,80.60
2022-12-04T21:44:29.670Z,81.63
2022-12-04T21:46:57.796Z,81.24
2022-12-04T21:49:25.816Z,81.29
2022-12-04T21:51:58.431Z,81.46
2022-12-04T21:54:27.653Z,81.61
2022-12-04T21:56:57.987Z,80.94
2022-12-04T21:59:27.057Z,81.43
2022-12-04T22:01:55.552Z,81.09
2022-12-04T22:04:24.108Z,80.46
2022-12-04T22:06:52.432Z,80.36
2022-12-04T22:09:20.395Z,81.62
2022-12-04T22:11:48.471Z,80.82
2022-12-04T22:14:18.621Z,80.92
2022-12-04T22:16:46.843Z,81.06
2022-12-04T22:19:14.884Z,81.19
2022-12-04T22:21:42.799Z,81.64
2022-12-04T22:24:11.492Z,82.05
2022-12-04T22:26:40.531Z,81.55
2022-12-04T22:29:34.080Z,81.42
2022-12-04T22:31:58.080Z,82.64
2022-12-04T22:34:26.056Z,83.05
2022-12-04T22:36:53.869Z,82.87
2022-12-04T22:39:21.847Z,82.67
2022-12-04T22:41:49.750Z,83.04
2022-12-04T22:44:17.584Z,81.75
2022-12-04T22:46:45.563Z,83.22
2022-12-04T22:49:14.950Z,83.69
2022-12-04T22:51:42.928Z,84.29
2022-12-04T22:54:14.677Z,83.04
2022-12-04T22:56:43.677Z,83.60
2022-12-04T22:59:11.678Z,83.17
2022-12-04T23:01:39.861Z,83.79
2022-12-04T23:04:07.788Z,84.33
2022-12-04T23:06:37.235Z,85.15
2022-12-04T23:09:09.907Z,85.96
2022-12-04T23:11:38.450Z,86.33
2022-12-04T23:14:08.720Z,85.84
2022-12-04T23:16:38.616Z,85.63
2022-12-04T23:19:07.253Z,85.71
2022-12-04T23:21:37.209Z,85.55
2022-12-04T23:24:05.661Z,85.18
2022-12-04T23:26:36.712Z,85.00
2022-12-04T23:29:23.371Z,85.64
2022-12-04T23:31:55.861Z,85.53
2022-12-04T23:34:24.065Z,85.36
2022-12-04T23:36:53.899Z,85.36
2022-12-04T23:39:21.822Z,85.59
2022-12-04T23:41:49.878Z,84.74
2022-12-04T23:44:17.691Z,85.63
2022-12-04T23:46:45.612Z,85.98
2022-12-04T23:49:13.503Z,86.01
2022-12-04T23:51:41.316Z,85.63
2022-12-04T23:54:11.260Z,85.84
2022-12-04T23:56:39.181Z,86.42
2022-12-04T23:59:07.067Z,86.47
